Time;durP1;ratioP1;P1;durP2;ratioP2;P2;SDS_P1;SDS_P2;PMS_P1;PMS_P2;Temp;Humidity;BMP_temperature;BMP_pressure;BME280_temperature;BME280_humidity;BME280_pressure;Samples;Min_cycle;Max_cycle;Signal;HPM_P1;HPM_P2
2022/09/06 00:01:18;;;;;;;2.92;1.60;;;20.80;99.80;;;;;;5052219;28;20032;-64
2022/09/06 00:03:44;;;;;;;1.58;0.80;;;20.90;99.90;;;;;;5052212;28;20032;-64
2022/09/06 00:06:17;;;;;;;4.07;1.20;;;21.00;99.90;;;;;;5052394;28;20029;-64
2022/09/06 00:08:44;;;;;;;2.03;1.20;;;21.00;99.90;;;;;;5052528;28;20029;-64
2022/09/06 00:11:10;;;;;;;1.95;1.23;;;21.00;99.90;;;;;;5033914;28;20403;-64
2022/09/06 00:13:37;;;;;;;3.75;1.48;;;21.20;99.90;;;;;;5034064;28;20048;-64
2022/09/06 00:16:23;;;;;;;0.90;0.63;;;21.20;98.80;;;;;;5034578;28;20032;-64
2022/09/06 00:18:53;;;;;;;6.68;1.33;;;21.20;99.20;;;;;;5052047;28;20025;-64
2022/09/06 00:21:29;;;;;;;1.55;1.00;;;21.10;99.50;;;;;;5034306;28;20021;-64
2022/09/06 00:23:55;;;;;;;1.10;0.60;;;21.10;99.70;;;;;;5051400;28;20032;-64
2022/09/06 00:26:22;;;;;;;2.47;1.05;;;21.20;98.20;;;;;;5033786;28;20024;-64
2022/09/06 00:28:48;;;;;;;1.98;1.33;;;21.10;99.10;;;;;;5051069;28;20029;-64
2022/09/06 00:31:25;;;;;;;1.92;1.00;;;21.10;98.90;;;;;;5033359;28;20078;-64
2022/09/06 00:33:51;;;;;;;2.17;1.10;;;21.00;99.90;;;;;;5033640;28;20025;-64
2022/09/06 00:36:19;;;;;;;1.23;0.82;;;21.00;99.90;;;;;;5033879;28;20025;-64
2022/09/06 00:38:45;;;;;;;2.22;1.15;;;20.80;99.90;;;;;;5033465;28;20040;-64
2022/09/06 00:41:15;;;;;;;1.52;1.15;;;20.80;99.90;;;;;;5033219;28;20028;-64
2022/09/06 00:43:41;;;;;;;7.10;1.67;;;21.00;99.90;;;;;;5051144;28;20064;-64
2022/09/06 00:46:16;;;;;;;2.58;1.35;;;21.20;99.90;;;;;;5033648;28;20053;-64
2022/09/06 00:48:44;;;;;;;3.88;0.90;;;21.30;99.90;;;;;;5034098;28;20032;-64
2022/09/06 00:51:13;;;;;;;1.83;0.95;;;21.30;99.60;;;;;;5033076;28;20033;-64
2022/09/06 00:53:40;;;;;;;2.10;1.08;;;21.20;99.70;;;;;;5032892;28;20032;-65
2022/09/06 00:56:06;;;;;;;1.27;0.80;;;21.20;99.80;;;;;;5050909;28;20021;-65
2022/09/06 00:58:32;;;;;;;3.00;1.42;;;21.00;99.90;;;;;;5033384;28;20052;-65
2022/09/06 01:00:58;;;;;;;3.78;1.90;;;20.80;99.90;;;;;;5032904;28;20029;-65
2022/09/06 01:03:25;;;;;;;1.00;0.70;;;20.80;99.90;;;;;;5050570;28;20047;-65
2022/09/06 01:06:03;;;;;;;2.00;0.80;;;20.70;99.90;;;;;;5027773;28;20025;-65
2022/09/06 01:09:05;;;;;;;2.30;1.42;;;20.50;99.90;;;;;;5051004;28;20041;-65
2022/09/06 01:12:15;;;;;;;1.13;0.47;;;20.30;99.90;;;;;;5025363;28;20033;-65
2022/09/06 01:15:21;;;;;;;3.33;1.33;;;20.30;99.90;;;;;;5050442;28;20115;-65
2022/09/06 01:18:12;;;;;;;6.03;1.15;;;20.30;99.90;;;;;;5034934;28;20388;-65
2022/09/06 01:21:18;;;;;;;11.65;1.10;;;20.30;99.90;;;;;;5050882;28;20056;-65
2022/09/06 01:24:04;;;;;;;2.03;1.10;;;20.40;99.90;;;;;;5049966;28;20056;-65
2022/09/06 01:27:11;;;;;;;3.70;1.38;;;20.30;99.90;;;;;;5032082;28;20028;-64
2022/09/06 01:30:11;;;;;;;2.10;1.40;;;20.20;99.90;;;;;;5032171;28;20404;-64
2022/09/06 01:33:02;;;;;;;3.05;1.55;;;20.30;99.90;;;;;;5029594;28;20041;-64
2022/09/06 01:35:53;;;;;;;3.22;1.58;;;20.20;99.90;;;;;;5050001;28;20116;-64
2022/09/06 01:38:18;;;;;;;3.57;1.57;;;20.50;99.90;;;;;;5032916;28;20027;-64
2022/09/06 01:40:44;;;;;;;4.45;2.33;;;20.80;99.90;;;;;;5030945;28;20119;-63
2022/09/06 01:43:17;;;;;;;2.40;1.25;;;21.10;99.90;;;;;;5048589;28;20033;-64
2022/09/06 01:45:48;;;;;;;3.55;0.80;;;21.30;99.90;;;;;;5032051;28;20065;-64
2022/09/06 01:48:14;;;;;;;2.80;1.30;;;21.50;99.90;;;;;;5030958;28;20037;-63
2022/09/06 01:50:57;;;;;;;2.08;1.27;;;21.60;99.90;;;;;;5048500;28;20055;-64
2022/09/06 01:54:11;;;;;;;4.78;1.52;;;21.80;99.90;;;;;;5048700;28;20385;-64
2022/09/06 01:57:07;;;;;;;2.20;1.55;;;21.90;99.90;;;;;;5050347;28;20626;-63
2022/09/06 02:00:04;;;;;;;3.33;1.10;;;22.00;99.90;;;;;;5050358;28;20135;-63
2022/09/06 02:03:13;;;;;;;1.58;0.80;;;22.10;99.90;;;;;;5032639;28;20064;-63
2022/09/06 02:05:55;;;;;;;8.65;1.13;;;22.20;99.90;;;;;;5050360;28;20035;-63
2022/09/06 02:08:40;;;;;;;2.67;1.33;;;22.10;99.90;;;;;;5032936;28;20025;-63
2022/09/06 02:11:08;;;;;;;1.10;0.70;;;22.10;99.90;;;;;;5032828;28;20068;-63
2022/09/06 02:14:00;;;;;;;2.42;1.02;;;22.00;99.90;;;;;;5049758;28;20037;-64
2022/09/06 02:16:28;;;;;;;1.00;0.60;;;21.90;99.90;;;;;;5032869;28;20036;-63
2022/09/06 02:19:09;;;;;;;0.82;0.40;;;21.90;99.90;;;;;;5032482;28;20064;-63
2022/09/06 02:21:41;;;;;;;0.98;0.68;;;21.90;99.90;;;;;;5017087;28;20040;-63
2022/09/06 02:24:12;;;;;;;1.42;0.60;;;22.00;99.90;;;;;;5032291;28;20033;-63
2022/09/06 02:26:42;;;;;;;1.42;0.65;;;22.00;99.90;;;;;;5032601;28;20029;-63
2022/09/06 02:29:08;;;;;;;2.80;0.93;;;22.00;99.90;;;;;;5032440;28;20036;-63
2022/09/06 02:31:39;;;;;;;1.45;0.88;;;22.00;99.90;;;;;;5032250;28;20396;-63
2022/09/06 02:34:05;;;;;;;0.57;0.38;;;22.00;99.90;;;;;;5032078;28;20021;-64
2022/09/06 02:36:31;;;;;;;0.90;0.70;;;22.00;99.90;;;;;;5049785;28;20028;-64
2022/09/06 02:39:00;;;;;;;2.85;0.68;;;22.00;99.90;;;;;;5031723;28;20048;-64
2022/09/06 02:41:26;;;;;;;1.25;0.80;;;21.90;99.90;;;;;;5031999;28;20040;-64
2022/09/06 02:43:52;;;;;;;1.45;0.82;;;21.90;99.90;;;;;;5028847;23;20048;-64
2022/09/06 02:46:18;;;;;;;2.50;1.10;;;21.90;99.90;;;;;;4999288;28;20113;-62
2022/09/06 02:48:43;;;;;;;0.70;0.52;;;21.80;99.90;;;;;;4990568;28;20045;-62
2022/09/06 02:51:09;;;;;;;1.52;0.98;;;21.70;99.90;;;;;;4990497;28;20037;-65
2022/09/06 02:53:36;;;;;;;0.88;0.70;;;21.80;99.90;;;;;;4990232;28;20072;-63
2022/09/06 02:56:02;;;;;;;2.60;1.15;;;21.80;99.90;;;;;;4990797;28;20077;-63
2022/09/06 02:58:28;;;;;;;0.52;0.30;;;21.80;99.90;;;;;;4989390;28;20079;-63
2022/09/06 03:00:54;;;;;;;0.73;0.60;;;21.90;99.90;;;;;;4990471;28;20050;-63
2022/09/06 03:03:21;;;;;;;0.47;0.47;;;21.90;99.90;;;;;;4999880;28;20077;-63
2022/09/06 03:05:51;;;;;;;1.35;0.60;;;21.80;99.90;;;;;;5009588;28;20026;-63
2022/09/06 03:08:19;;;;;;;0.40;0.38;;;21.80;99.90;;;;;;5023785;28;20042;-64
2022/09/06 03:10:50;;;;;;;2.08;0.98;;;21.80;99.90;;;;;;5008301;28;20037;-64
2022/09/06 03:13:16;;;;;;;2.15;0.95;;;21.70;99.90;;;;;;5008620;28;20116;-64
2022/09/06 03:15:41;;;;;;;0.77;0.43;;;21.70;99.90;;;;;;5013319;28;20129;-64
2022/09/06 03:18:07;;;;;;;0.70;0.65;;;21.80;99.90;;;;;;5013461;28;20030;-64
2022/09/06 03:20:33;;;;;;;0.95;0.50;;;21.90;99.90;;;;;;5013296;28;20385;-64
2022/09/06 03:22:59;;;;;;;2.15;1.10;;;21.90;99.90;;;;;;5013095;28;20030;-63
2022/09/06 03:25:25;;;;;;;1.95;0.93;;;22.00;99.90;;;;;;5013306;28;20528;-64
2022/09/06 03:27:50;;;;;;;3.60;0.98;;;21.70;99.90;;;;;;5013468;28;20042;-64
2022/09/06 03:30:17;;;;;;;1.42;0.90;;;21.50;99.90;;;;;;5011652;28;20033;-64
2022/09/06 03:32:42;;;;;;;1.38;1.00;;;21.30;99.90;;;;;;5011565;28;20125;-64
2022/09/06 03:35:09;;;;;;;1.52;0.77;;;20.90;99.90;;;;;;5013073;28;20156;-64
2022/09/06 03:37:35;;;;;;;2.85;1.67;;;20.80;99.90;;;;;;5013087;28;20038;-64
2022/09/06 03:40:02;;;;;;;1.02;0.85;;;20.70;99.90;;;;;;5013122;28;20032;-64
2022/09/06 03:42:28;;;;;;;2.05;0.70;;;20.50;99.90;;;;;;5011738;28;20073;-64
2022/09/06 03:44:54;;;;;;;2.15;1.35;;;20.50;99.90;;;;;;5012801;28;20107;-64
2022/09/06 03:47:19;;;;;;;1.33;0.75;;;20.60;99.90;;;;;;5011918;28;20516;-64
2022/09/06 03:49:46;;;;;;;1.05;0.52;;;20.60;99.90;;;;;;5011443;28;20112;-64
2022/09/06 03:52:12;;;;;;;1.00;0.77;;;20.60;99.90;;;;;;5012355;28;20034;-64
2022/09/06 03:54:38;;;;;;;2.20;1.23;;;20.30;99.90;;;;;;5012579;28;20021;-64
2022/09/06 03:57:03;;;;;;;2.28;1.20;;;20.20;99.90;;;;;;5012602;28;20084;-64
2022/09/06 03:59:29;;;;;;;2.53;1.23;;;20.20;99.90;;;;;;5011597;28;20661;-64
2022/09/06 04:01:55;;;;;;;4.22;2.47;;;20.20;99.90;;;;;;5012830;28;20041;-64
2022/09/06 04:04:20;;;;;;;3.30;1.70;;;20.20;99.90;;;;;;5012280;28;20548;-63
2022/09/06 04:06:46;;;;;;;2.88;1.15;;;19.90;99.90;;;;;;5012637;28;20037;-63
2022/09/06 04:09:12;;;;;;;1.98;1.02;;;19.80;99.90;;;;;;5012191;28;20076;-63
2022/09/06 04:11:37;;;;;;;4.03;2.15;;;19.80;99.90;;;;;;5006716;28;20037;-64
2022/09/06 04:14:03;;;;;;;2.35;1.70;;;19.80;99.90;;;;;;5010249;28;20072;-64
2022/09/06 04:16:29;;;;;;;3.08;1.45;;;19.80;99.90;;;;;;5005239;28;20390;-64
2022/09/06 04:18:55;;;;;;;1.52;0.98;;;19.70;99.90;;;;;;5009935;28;20026;-64
2022/09/06 04:21:20;;;;;;;2.65;1.58;;;19.70;99.90;;;;;;4929076;28;20519;-63
2022/09/06 04:23:46;;;;;;;2.55;0.90;;;19.60;99.90;;;;;;4991780;28;20364;-63
2022/09/06 04:26:11;;;;;;;2.25;1.10;;;19.70;99.90;;;;;;4991871;28;20093;-63
2022/09/06 04:28:37;;;;;;;7.32;1.50;;;19.70;99.90;;;;;;4992366;28;20474;-63
2022/09/06 04:31:03;;;;;;;10.63;5.45;;;19.70;99.90;;;;;;4991559;28;20073;-62
2022/09/06 04:33:31;;;;;;;17.05;8.18;;;19.60;99.90;;;;;;4991584;28;20402;-63
2022/09/06 04:35:59;;;;;;;3.95;2.00;;;19.70;99.90;;;;;;4992039;28;20022;-64
2022/09/06 04:38:29;;;;;;;2.22;1.48;;;19.60;99.90;;;;;;4992401;28;20052;-62
2022/09/06 04:40:55;;;;;;;4.22;2.40;;;19.50;99.90;;;;;;4985736;28;20494;-63
2022/09/06 04:43:22;;;;;;;4.57;2.47;;;19.50;99.90;;;;;;4993282;28;20506;-63
2022/09/06 04:45:48;;;;;;;2.30;1.20;;;19.50;99.90;;;;;;5010440;28;20034;-63
2022/09/06 04:48:15;;;;;;;1.70;1.00;;;19.50;99.90;;;;;;5011720;28;20787;-62
2022/09/06 04:50:41;;;;;;;1.55;0.82;;;19.50;99.90;;;;;;5009953;28;20113;-63
2022/09/06 04:53:09;;;;;;;2.60;1.08;;;19.50;99.90;;;;;;5010349;28;20764;-63
2022/09/06 04:55:36;;;;;;;3.42;1.75;;;19.40;99.90;;;;;;5009458;28;20075;-63
2022/09/06 04:58:03;;;;;;;2.33;1.23;;;19.40;99.90;;;;;;5010235;28;20034;-63
2022/09/06 05:00:31;;;;;;;2.03;1.27;;;19.20;99.90;;;;;;5011331;28;20060;-63
2022/09/06 05:02:57;;;;;;;3.28;1.55;;;19.20;99.90;;;;;;5011450;28;20535;-63
2022/09/06 05:05:23;;;;;;;3.53;1.75;;;19.10;99.90;;;;;;5011344;28;20065;-63
2022/09/06 05:07:54;;;;;;;2.85;1.42;;;19.00;99.90;;;;;;5010329;28;20041;-62
2022/09/06 05:10:21;;;;;;;4.65;1.40;;;18.90;99.90;;;;;;4993324;28;20056;-62
2022/09/06 05:12:53;;;;;;;5.18;1.98;;;18.90;99.90;;;;;;4993331;28;20073;-63
2022/09/06 05:15:20;;;;;;;4.70;1.90;;;18.90;99.90;;;;;;5009980;28;20034;-63
2022/09/06 05:17:47;;;;;;;3.30;1.25;;;18.90;99.90;;;;;;5009688;28;20076;-63
2022/09/06 05:20:14;;;;;;;3.67;1.75;;;19.00;99.90;;;;;;5010551;28;20048;-63
2022/09/06 05:22:40;;;;;;;10.18;1.90;;;18.80;99.90;;;;;;5009303;28;20795;-63
2022/09/06 05:25:08;;;;;;;1.98;1.15;;;18.80;99.90;;;;;;5010832;28;20042;-63
2022/09/06 05:27:33;;;;;;;3.45;1.63;;;18.80;99.90;;;;;;5009399;28;20029;-63
2022/09/06 05:29:59;;;;;;;3.95;2.55;;;18.90;99.90;;;;;;5010711;28;20076;-64
2022/09/06 05:32:25;;;;;;;2.67;1.45;;;19.10;99.90;;;;;;5010828;28;20042;-62
2022/09/06 05:34:50;;;;;;;3.15;2.10;;;19.10;99.90;;;;;;5010487;28;20034;-63
2022/09/06 05:37:16;;;;;;;2.92;1.58;;;19.10;99.90;;;;;;5009612;28;20295;-62
2022/09/06 05:39:42;;;;;;;2.35;1.27;;;19.10;99.90;;;;;;5010565;28;20116;-67
2022/09/06 05:42:07;;;;;;;6.50;2.20;;;19.20;99.90;;;;;;5010674;28;20029;-68
2022/09/06 05:44:36;;;;;;;3.90;2.53;;;19.20;99.90;;;;;;5010226;28;20597;-67
2022/09/06 05:47:03;;;;;;;5.38;2.35;;;19.30;99.90;;;;;;4992784;28;20041;-67
2022/09/06 05:49:30;;;;;;;2.33;1.45;;;19.30;99.90;;;;;;4992741;28;20397;-68
2022/09/06 05:51:56;;;;;;;2.78;1.55;;;19.40;99.90;;;;;;5010332;28;20040;-68
2022/09/06 05:54:23;;;;;;;2.85;1.75;;;19.50;99.90;;;;;;5039110;23;20102;-68
2022/09/06 05:56:49;;;;;;;2.58;1.45;;;19.50;99.90;;;;;;5032148;28;20029;-68
2022/09/06 05:59:15;;;;;;;2.58;1.67;;;19.60;99.90;;;;;;5049926;28;20048;-68
2022/09/06 06:01:52;;;;;;;1.92;1.17;;;19.50;99.90;;;;;;5032025;28;20029;-69
2022/09/06 06:04:18;;;;;;;2.75;1.70;;;19.50;99.90;;;;;;5061788;28;20166;-68
2022/09/06 06:06:45;;;;;;;2.08;1.13;;;19.50;99.90;;;;;;5069989;28;20035;-68
2022/09/06 06:09:12;;;;;;;3.70;2.20;;;19.60;99.90;;;;;;5035047;28;20081;-69
2022/09/06 06:11:39;;;;;;;4.65;1.80;;;19.50;99.90;;;;;;5062194;28;20031;-68
2022/09/06 06:14:05;;;;;;;12.18;3.17;;;19.60;99.90;;;;;;5059621;28;20102;-68
2022/09/06 06:16:31;;;;;;;3.92;1.95;;;19.60;99.90;;;;;;5069945;28;20071;-68
2022/09/06 06:18:57;;;;;;;6.53;1.60;;;19.50;99.90;;;;;;5051843;28;20111;-69
2022/09/06 06:21:26;;;;;;;4.07;2.10;;;19.60;99.90;;;;;;5070047;28;20032;-68
2022/09/06 06:23:58;;;;;;;3.58;1.83;;;19.60;99.90;;;;;;5051774;28;20033;-68
2022/09/06 06:26:26;;;;;;;6.90;1.60;;;19.60;99.90;;;;;;5070022;28;20114;-68
2022/09/06 06:28:52;;;;;;;19.27;3.00;;;19.70;99.90;;;;;;5047516;28;20025;-67
2022/09/06 06:31:21;;;;;;;6.80;1.55;;;19.70;99.90;;;;;;5050058;28;20061;-67
2022/09/06 06:33:47;;;;;;;4.88;2.13;;;19.70;99.90;;;;;;5069044;28;20760;-68
2022/09/06 06:36:13;;;;;;;3.20;1.98;;;19.90;99.90;;;;;;5051497;28;20112;-67
2022/09/06 06:38:41;;;;;;;7.95;2.88;;;19.90;99.90;;;;;;5069649;28;20185;-68
2022/09/06 06:41:11;;;;;;;7.40;2.50;;;20.00;99.90;;;;;;5048821;28;20485;-68
2022/09/06 06:43:37;;;;;;;4.55;1.88;;;20.00;99.90;;;;;;5048017;28;20389;-68
2022/09/06 06:46:10;;;;;;;9.65;3.63;;;20.00;99.90;;;;;;5049603;28;20032;-68
2022/09/06 06:48:40;;;;;;;12.50;2.75;;;20.10;99.90;;;;;;5049895;28;20382;-68
2022/09/06 06:51:07;;;;;;;3.13;2.08;;;20.00;99.90;;;;;;5053555;28;20036;-68
2022/09/06 06:53:34;;;;;;;5.13;2.95;;;20.10;99.90;;;;;;5052799;28;20040;-69
2022/09/06 06:56:00;;;;;;;6.53;2.35;;;20.00;99.90;;;;;;5053883;28;20025;-68
2022/09/06 06:58:26;;;;;;;8.23;2.33;;;20.00;99.90;;;;;;5068845;28;20088;-66
2022/09/06 07:00:52;;;;;;;5.10;1.80;;;20.00;99.90;;;;;;5055549;28;20476;-67
2022/09/06 07:03:18;;;;;;;10.93;2.13;;;19.90;99.90;;;;;;5072916;28;20064;-67
2022/09/06 07:05:46;;;;;;;7.63;2.13;;;20.10;99.90;;;;;;5073339;28;20044;-67
2022/09/06 07:08:12;;;;;;;1.92;1.30;;;20.10;99.90;;;;;;5073270;28;20043;-68
2022/09/06 07:10:38;;;;;;;4.55;1.80;;;20.20;99.90;;;;;;5073015;28;20024;-68
2022/09/06 07:13:03;;;;;;;5.65;1.88;;;20.30;99.90;;;;;;5036580;28;20033;-67
2022/09/06 07:15:29;;;;;;;3.03;1.35;;;20.40;99.90;;;;;;5053132;28;20072;-68
2022/09/06 07:17:56;;;;;;;4.57;1.63;;;20.40;99.90;;;;;;5053048;28;20120;-68
2022/09/06 07:20:25;;;;;;;5.50;2.35;;;20.50;99.90;;;;;;5051671;28;20527;-66
2022/09/06 07:23:04;;;;;;;3.30;1.60;;;20.50;99.90;;;;;;5052678;28;20033;-66
2022/09/06 07:25:31;;;;;;;4.95;1.63;;;20.60;99.90;;;;;;5051448;28;20033;-67
2022/09/06 07:28:05;;;;;;;2.75;1.50;;;20.70;99.90;;;;;;5053029;28;20053;-68
2022/09/06 07:30:36;;;;;;;3.08;1.52;;;20.80;99.90;;;;;;5034781;28;20610;-67
2022/09/06 07:33:06;;;;;;;3.53;2.22;;;20.90;99.90;;;;;;5050975;28;20099;-67
2022/09/06 07:35:32;;;;;;;3.75;1.67;;;21.00;99.90;;;;;;5051365;28;20036;-67
2022/09/06 07:38:00;;;;;;;2.38;1.20;;;21.10;99.90;;;;;;5052633;28;20116;-68
2022/09/06 07:40:29;;;;;;;2.10;1.40;;;21.10;99.90;;;;;;5052630;28;20029;-69
2022/09/06 07:42:58;;;;;;;9.30;1.40;;;21.10;99.90;;;;;;5052315;28;20649;-69
2022/09/06 07:45:25;;;;;;;9.15;2.58;;;21.20;99.90;;;;;;5052545;28;20029;-69
2022/09/06 07:47:58;;;;;;;3.50;1.55;;;21.40;99.90;;;;;;5052383;28;20095;-69
2022/09/06 07:50:29;;;;;;;2.42;0.90;;;21.40;99.90;;;;;;5052347;28;20033;-69
2022/09/06 07:53:07;;;;;;;2.80;1.27;;;21.50;99.90;;;;;;5051811;28;20036;-69
2022/09/06 07:55:33;;;;;;;5.90;1.33;;;21.40;99.90;;;;;;5051189;28;20025;-69
2022/09/06 07:57:58;;;;;;;2.45;1.20;;;21.50;99.90;;;;;;5052321;28;20040;-69
2022/09/06 08:00:24;;;;;;;2.70;1.65;;;21.40;99.90;;;;;;5033201;28;20103;-69
2022/09/06 08:02:50;;;;;;;1.45;1.02;;;21.60;99.90;;;;;;5052112;28;20472;-68
2022/09/06 08:05:16;;;;;;;4.03;1.45;;;21.70;99.90;;;;;;5060847;28;20035;-68
2022/09/06 08:07:41;;;;;;;6.30;1.42;;;21.90;99.90;;;;;;5071943;28;20060;-69
2022/09/06 08:10:07;;;;;;;8.52;2.25;;;22.10;99.90;;;;;;5071812;28;20048;-70
2022/09/06 08:12:33;;;;;;;2.22;1.10;;;22.20;99.90;;;;;;5057172;28;20086;-69
2022/09/06 08:14:59;;;;;;;7.78;1.75;;;22.20;99.90;;;;;;5059074;28;20484;-69
2022/09/06 08:17:25;;;;;;;5.93;2.60;;;22.00;99.90;;;;;;5072099;28;20039;-69
2022/09/06 08:19:50;;;;;;;3.63;1.55;;;21.90;99.90;;;;;;5054099;28;20051;-69
2022/09/06 08:22:16;;;;;;;2.65;1.35;;;21.90;99.90;;;;;;5071485;28;20071;-69
2022/09/06 08:24:42;;;;;;;2.78;1.27;;;22.00;99.90;;;;;;5071684;28;20059;-68
2022/09/06 08:27:07;;;;;;;5.53;1.58;;;22.00;99.90;;;;;;5071617;28;20111;-68
2022/09/06 08:29:34;;;;;;;2.20;0.88;;;22.10;99.90;;;;;;5071863;28;20029;-68
2022/09/06 08:31:59;;;;;;;2.10;1.05;;;22.20;99.90;;;;;;5053214;28;20024;-69
2022/09/06 08:34:25;;;;;;;1.85;1.13;;;22.20;99.90;;;;;;5071507;28;20453;-69
2022/09/06 08:36:51;;;;;;;3.10;1.58;;;22.40;99.90;;;;;;5071628;28;20031;-69
2022/09/06 08:39:17;;;;;;;2.42;1.40;;;22.60;99.90;;;;;;5069960;28;20065;-69
2022/09/06 08:42:04;;;;;;;2.25;1.13;;;22.70;99.90;;;;;;5070224;28;20044;-69
2022/09/06 08:44:48;;;;;;;3.15;1.33;;;22.90;99.90;;;;;;5043169;23;20662;-73
2022/09/06 08:47:17;;;;;;;6.57;1.30;;;23.00;99.90;;;;;;4994934;28;20065;-72
2022/09/06 08:49:55;;;;;;;2.03;1.10;;;23.10;99.90;;;;;;4993583;28;20073;-72
2022/09/06 08:52:48;;;;;;;2.45;1.30;;;23.30;99.90;;;;;;4994518;28;20390;-73
2022/09/06 08:55:39;;;;;;;2.97;1.67;;;23.30;99.90;;;;;;5011701;28;20061;-72
2022/09/06 08:58:31;;;;;;;3.53;0.95;;;23.40;99.90;;;;;;5011585;28;20088;-73
2022/09/06 09:01:10;;;;;;;4.10;1.42;;;23.50;99.90;;;;;;4980372;28;20041;-72
2022/09/06 09:03:38;;;;;;;3.42;1.35;;;23.70;99.90;;;;;;5010126;28;20026;-73
2022/09/06 09:06:08;;;;;;;5.50;1.25;;;23.80;99.90;;;;;;5011166;28;20041;-73
2022/09/06 09:09:11;;;;;;;3.87;1.83;;;23.90;99.90;;;;;;5010183;28;20474;-73
2022/09/06 09:11:42;;;;;;;2.72;1.17;;;24.10;99.90;;;;;;4975024;28;20049;-73
2022/09/06 09:14:21;;;;;;;2.70;1.50;;;24.10;99.90;;;;;;5010130;28;20645;-73
2022/09/06 09:16:52;;;;;;;3.67;1.40;;;24.30;99.90;;;;;;5010169;28;20037;-72
2022/09/06 09:19:18;;;;;;;11.05;1.58;;;24.40;99.90;;;;;;5011049;28;20026;-73
2022/09/06 09:21:44;;;;;;;1.73;1.10;;;24.40;99.90;;;;;;5011382;28;20036;-73
2022/09/06 09:24:13;;;;;;;6.05;1.40;;;24.40;99.90;;;;;;4993585;28;20666;-72
2022/09/06 09:27:05;;;;;;;1.85;1.10;;;24.60;99.90;;;;;;5009761;28;20026;-73
2022/09/06 09:29:31;;;;;;;2.38;1.05;;;24.50;99.90;;;;;;4993148;28;20046;-73
2022/09/06 09:31:57;;;;;;;2.28;1.52;;;24.80;99.90;;;;;;5011015;28;20510;-73
2022/09/06 09:34:34;;;;;;;10.40;1.55;;;25.10;99.90;;;;;;5009432;28;20478;-72
2022/09/06 09:37:21;;;;;;;2.17;1.20;;;25.00;99.90;;;;;;5009631;28;20044;-72
2022/09/06 09:39:49;;;;;;;1.50;0.90;;;25.20;99.90;;;;;;5010801;28;20121;-73
2022/09/06 09:42:34;;;;;;;3.58;1.33;;;25.30;99.90;;;;;;5009661;28;20438;-72
2022/09/06 09:45:06;;;;;;;14.02;2.50;;;25.50;99.90;;;;;;5003012;28;20517;-72
2022/09/06 09:47:33;;;;;;;5.45;1.65;;;25.70;99.90;;;;;;4989995;28;20038;-73
2022/09/06 09:49:59;;;;;;;3.78;1.52;;;25.70;99.90;;;;;;4991052;28;20104;-73
2022/09/06 09:52:30;;;;;;;2.35;1.45;;;25.80;99.90;;;;;;4990812;28;20034;-73
2022/09/06 09:55:02;;;;;;;2.65;1.40;;;25.80;99.90;;;;;;4989687;28;20371;-73
2022/09/06 09:57:41;;;;;;;1.58;0.93;;;26.00;99.80;;;;;;4989970;28;20022;-73
2022/09/06 10:00:12;;;;;;;2.75;1.60;;;26.20;99.50;;;;;;4989621;28;20030;-72
2022/09/06 10:02:40;;;;;;;1.90;0.93;;;26.30;99.60;;;;;;4989591;28;20032;-72
2022/09/06 10:05:12;;;;;;;2.25;1.55;;;26.10;99.40;;;;;;4973657;28;20129;-72
2022/09/06 10:07:54;;;;;;;2.70;1.17;;;26.20;99.00;;;;;;4990973;28;20120;-72
2022/09/06 10:10:33;;;;;;;1.92;1.27;;;26.30;99.20;;;;;;4992252;28;20034;-72
2022/09/06 10:13:29;;;;;;;2.33;0.75;;;26.30;99.10;;;;;;5006497;28;20034;-72
2022/09/06 10:15:58;;;;;;;1.85;1.38;;;26.50;99.10;;;;;;4976025;28;20037;-71
2022/09/06 10:18:37;;;;;;;1.75;1.20;;;26.70;98.60;;;;;;5009269;28;20026;-69
2022/09/06 10:21:15;;;;;;;5.38;1.08;;;26.80;98.60;;;;;;5010102;28;20495;-70
2022/09/06 10:24:32;;;;;;;2.17;1.33;;;26.70;98.60;;;;;;5009531;28;20573;-72
2022/09/06 10:27:01;;;;;;;5.05;1.75;;;26.90;98.90;;;;;;5014686;28;20066;-71
2022/09/06 10:29:46;;;;;;;6.13;2.22;;;26.90;98.80;;;;;;5014232;28;20030;-73
2022/09/06 10:32:44;;;;;;;3.88;1.60;;;27.00;98.20;;;;;;5014476;28;20080;-71
2022/09/06 10:35:22;;;;;;;1.50;0.98;;;27.10;98.50;;;;;;5013917;28;20041;-71
2022/09/06 10:38:31;;;;;;;7.50;3.25;;;27.30;98.10;;;;;;5014362;28;20037;-72
2022/09/06 10:41:21;;;;;;;2.72;1.67;;;27.60;97.90;;;;;;4993126;28;20057;-71
2022/09/06 10:44:03;;;;;;;10.32;2.15;;;27.60;97.80;;;;;;5012139;28;20080;-71
2022/09/06 10:46:33;;;;;;;13.35;2.63;;;27.30;97.80;;;;;;5012512;28;20034;-72
2022/09/06 10:48:59;;;;;;;4.07;1.33;;;27.70;97.70;;;;;;4996108;28;20121;-72
2022/09/06 10:51:40;;;;;;;3.70;1.10;;;27.90;97.80;;;;;;5013862;28;20120;-72
2022/09/06 10:54:13;;;;;;;;;;;27.90;98.00;;;;;;5013822;28;20108;-76
2022/09/06 10:56:50;;;;;;;11.93;2.83;;;28.10;97.50;;;;;;5007626;28;19913;-72
2022/09/06 10:59:40;;;;;;;2.05;1.00;;;28.40;97.20;;;;;;5013818;28;20107;-74
2022/09/06 11:02:32;;;;;;;;;;;28.50;96.00;;;;;;4996707;28;20072;-74
2022/09/06 11:05:04;;;;;;;;;;;28.30;95.80;;;;;;4998042;28;19909;-74
2022/09/06 11:07:35;;;;;;;;;;;28.30;96.20;;;;;;5014104;28;19921;-74
2022/09/06 11:10:11;;;;;;;;;;;28.20;95.80;;;;;;5014334;28;20618;-74
2022/09/06 11:12:48;;;;;;;;;;;28.50;96.30;;;;;;5012886;28;19913;-75
2022/09/06 11:15:14;;;;;;;;;;;28.70;96.00;;;;;;5012655;28;19909;-74
2022/09/06 11:18:02;;;;;;;;;;;28.50;96.20;;;;;;5014235;28;20012;-74
2022/09/06 11:20:40;;;;;;;;;;;28.20;96.20;;;;;;5014035;28;19909;-75
2022/09/06 11:23:12;;;;;;;;;;;28.60;96.00;;;;;;5013004;28;19971;-75
2022/09/06 11:25:57;;;;;;;;;;;28.90;95.30;;;;;;5013539;28;19909;-74
2022/09/06 11:28:33;;;;;;;;;;;28.80;94.70;;;;;;5013840;28;20369;-75
2022/09/06 11:31:00;;;;;;;;;;;29.20;95.20;;;;;;5012468;28;20479;-75
2022/09/06 11:33:29;;;;;;;;;;;28.70;95.20;;;;;;5013576;28;19972;-75
2022/09/06 11:36:15;;;;;;;;;;;28.80;95.40;;;;;;5013479;28;20533;-74
2022/09/06 11:38:41;;;;;;;;;;;29.00;95.50;;;;;;5013624;28;19917;-74
2022/09/06 11:41:16;;;;;;;;;;;29.50;95.50;;;;;;5012284;28;20350;-74
2022/09/06 11:43:42;;;;;;;;;;;29.80;95.20;;;;;;5012176;28;19965;-74
2022/09/06 11:46:07;;;;;;;;;;;29.70;94.50;;;;;;5013432;28;20002;-75
2022/09/06 11:49:26;;;;;;;;;;;30.00;94.30;;;;;;5011962;28;19975;-75
2022/09/06 11:51:52;;;;;;;;;;;30.00;94.40;;;;;;5013223;28;20369;-75
2022/09/06 11:54:18;;;;;;;;;;;30.30;94.60;;;;;;5012827;28;19909;-74
2022/09/06 11:57:01;;;;;;;;;;;30.50;93.70;;;;;;5013334;28;19918;-75
2022/09/06 11:59:36;;;;;;;;;;;29.90;94.40;;;;;;5011841;28;19913;-74
2022/09/06 12:02:35;;;;;;;;;;;30.20;93.50;;;;;;5013314;28;19913;-74
2022/09/06 12:05:05;;;;;;;;;;;30.10;93.60;;;;;;5013015;28;19920;-74
2022/09/06 12:08:09;;;;;;;;;;;29.80;94.00;;;;;;4992350;28;19921;-74
2022/09/06 12:10:37;;;;;;;;;;;30.20;94.00;;;;;;5008167;28;19918;-75
2022/09/06 12:13:41;;;;;;;;;;;30.60;94.10;;;;;;5011160;28;19918;-74
2022/09/06 12:16:11;;;;;;;;;;;30.40;93.80;;;;;;5009444;28;19909;-75
2022/09/06 12:18:46;;;;;;;;;;;30.40;93.70;;;;;;5011782;28;19913;-75
2022/09/06 12:21:33;;;;;;;;;;;30.60;94.00;;;;;;5013065;28;19913;-75
2022/09/06 12:24:00;;;;;;;;;;;30.90;92.90;;;;;;5012977;28;20275;-75
2022/09/06 12:26:48;;;;;;;;;;;30.70;92.70;;;;;;5011878;28;20004;-74
2022/09/06 12:29:14;;;;;;;;;;;30.80;92.10;;;;;;5012731;28;20333;-75
2022/09/06 12:31:45;;;;;;;;;;;31.30;92.00;;;;;;5013703;28;20004;-75
2022/09/06 12:34:26;;;;;;;;;;;31.40;92.40;;;;;;5012384;28;19996;-75
2022/09/06 12:36:54;;;;;;;;;;;31.80;91.90;;;;;;5014094;28;19909;-75
2022/09/06 12:39:20;;;;;;;;;;;31.80;90.70;;;;;;5020365;28;19918;-75
2022/09/06 12:41:49;;;;;;;;;;;32.00;90.70;;;;;;5022393;28;20332;-75
2022/09/06 12:44:15;;;;;;;;;;;32.40;90.70;;;;;;5022230;28;19917;-74
2022/09/06 12:46:47;;;;;;;;;;;32.60;90.20;;;;;;5020592;28;19909;-76
2022/09/06 12:49:16;;;;;;;;;;;32.20;90.00;;;;;;5017322;28;19909;-76
2022/09/06 12:51:42;;;;;;;;;;;31.90;90.60;;;;;;5012123;28;19913;-75
2022/09/06 12:54:25;;;;;;;;;;;31.80;90.00;;;;;;5011759;28;19992;-72
2022/09/06 12:56:51;;;;;;;;;;;32.50;89.60;;;;;;5012044;28;19979;-75
2022/09/06 12:59:18;;;;;;;;;;;32.20;90.00;;;;;;5011034;28;19971;-75
2022/09/06 13:02:00;;;;;;;;;;;32.10;88.70;;;;;;5012039;28;19958;-75
2022/09/06 13:04:38;;;;;;;;;;;31.60;88.20;;;;;;5011002;28;19959;-74
2022/09/06 13:07:05;;;;;;;;;;;30.80;88.00;;;;;;5010858;28;19920;-75
2022/09/06 13:09:32;;;;;;;;;;;30.70;87.80;;;;;;5010634;28;20310;-75
2022/09/06 13:12:07;;;;;;;;;;;30.30;88.60;;;;;;5003669;28;20321;-74
2022/09/06 13:14:33;;;;;;;;;;;30.50;89.40;;;;;;5010642;28;19921;-75
2022/09/06 13:16:59;;;;;;;;;;;30.30;89.60;;;;;;5011500;28;19913;-74
2022/09/06 13:19:31;;;;;;;;;;;30.00;90.50;;;;;;5011948;28;19914;-75
2022/09/06 13:21:57;;;;;;;;;;;29.90;90.00;;;;;;5011840;28;19948;-75
2022/09/06 13:24:27;;;;;;;;;;;29.70;90.30;;;;;;5010221;28;19909;-75
2022/09/06 13:26:53;;;;;;;;;;;29.70;90.40;;;;;;4994328;28;19909;-74
2022/09/06 13:29:29;;;;;;;;;;;29.60;89.40;;;;;;5011172;28;20006;-74